KITH

Ithaca Tompkins Regional Airport

Ithaca, New York, USA
METAR KITH 161356Z 24004KT 1SM R32/5500VP6000FT -SN BR OVC021 M05/M07 A2992 RMK AO2 SLP147 P0000 T10501067
Observed Flight Rules
Dec-16 @ 13:56 UTC (49 minutes ago) Instrument Flight Rules
Wind Visibility Clouds Conditions
240° at 4 knots 1 miles
  • Overcast at 2,100' AGL
  • Light Snow
  • Mist
Temperatures Readings Precipitation
Current -5°C / 23°F
Dewpoint -7°C / 19°F
Humidity 86%
Altimeter 29.92" Hg
Pressure 1014.7 hPa
Elevation 335
Current Rain 0.005
METAR KITH 161356Z 24004KT 1SM R32/5500VP6000FT -SN BR OVC021 M05/M07 A2992 RMK AO2 SLP147 P0000 T10501067
Observed Flight Rules
Dec-16 @ 13:56 UTC
(49 minutes ago)
IFR
Wind Visibility
240° at 4 knots 1 miles
Clouds
  • Overcast at 2,100' AGL
Conditions
  • Light Snow
  • Mist
Temperature Dewpoint
-5°C / 23°F -7°C / 19°F
Humidity Altimeter Pressure
86% 29.92" Hg 1014.7 hPa
Current Rain
0.005